WetterOnline ( http://www.wetteronline.de )

Wetter aktuell Schwerin

Aktuelles Wetter: Schwerin (68m)

6-stündlich | Neueste Meldungen
Ortszeit Temperatur Wetter
Mi, 19.09. 2:00 15.8° C leicht bewölkt
Di, 18.09. 20:00 25.7° C leicht bewölkt
Di, 18.09. 14:00 28.4° C fast wolkenlos
Di, 18.09. 8:00 15.2° C -
Di, 18.09. 2:00 13.7° C -
Mo, 17.09. 20:00 18.7° C -
Mo, 17.09. 14:00 23.2° C leicht bewölkt
Mo, 17.09. 8:00 11.8° C wolkig
Ortszeit Temperatur Wetter
Mi, 19.09. 3:30 15.1° C fast wolkenlos
Mi, 19.09. 3:20 15.1° C fast wolkenlos
Mi, 19.09. 3:10 15.2° C fast wolkenlos
Mi, 19.09. 3:00 15.4° C fast wolkenlos
Mi, 19.09. 2:50 15.4° C fast wolkenlos
Mi, 19.09. 2:40 15.7° C leicht bewölkt
Mi, 19.09. 2:30 15.5° C fast wolkenlos
Mi, 19.09. 2:00 15.8° C leicht bewölkt
Mi, 19.09. 1:30 16.5° C bedeckt
Mi, 19.09. 1:00 17.3° C fast wolkenlos
Mi, 19.09. 0:30 18.1° C fast wolkenlos
Ortszeit Relative Feuchte Sichtweite
Mi, 19.09. 2:00 87% 13 km
Di, 18.09. 20:00 33% 17 km
Di, 18.09. 14:00 26% 24 km
Di, 18.09. 8:00 60% 25 km
Di, 18.09. 2:00 74% 24 km
Mo, 17.09. 20:00 53% 23 km
Mo, 17.09. 14:00 42% 28 km
Mo, 17.09. 8:00 75% 21 km
Ortszeit Relative Feuchte Sichtweite
Mi, 19.09. 3:30 90% 9 km
Mi, 19.09. 3:20 90% -
Mi, 19.09. 3:10 90% -
Mi, 19.09. 3:00 89% 10 km
Mi, 19.09. 2:50 89% -
Mi, 19.09. 2:40 88% -
Mi, 19.09. 2:30 89% 12 km
Mi, 19.09. 2:00 87% 13 km
Mi, 19.09. 1:30 85% 15 km
Mi, 19.09. 1:00 82% 16 km
Mi, 19.09. 0:30 78% 18 km
Ortszeit Niederschlagsmenge Niederschlagsart
Mi, 19.09. 2:00 0.0 l/m2 in 6 Std. -
Di, 18.09. 20:00 0.0 l/m2 in 12 Std. -
Di, 18.09. 14:00 0.0 l/m2 in 6 Std. -
Di, 18.09. 8:00 0.0 l/m2 in 12 Std. -
Di, 18.09. 2:00 0.0 l/m2 in 6 Std. -
Mo, 17.09. 20:00 0.0 l/m2 in 12 Std. -
Mo, 17.09. 14:00 0.0 l/m2 in 6 Std. -
Mo, 17.09. 8:00 0.0 l/m2 in 12 Std. -
Ortszeit Niederschlagsmenge Niederschlagsart
Mi, 19.09. 3:30 0.0 l/m2 in 1 Std. -
Mi, 19.09. 3:20 keine Meldung -
Mi, 19.09. 3:10 keine Meldung -
Mi, 19.09. 3:00 0.0 l/m2 in 1 Std. -
Mi, 19.09. 2:50 keine Meldung -
Mi, 19.09. 2:40 keine Meldung -
Mi, 19.09. 2:30 0.0 l/m2 in 1 Std. -
Mi, 19.09. 2:00 0.0 l/m2 in 1 Std. -
Mi, 19.09. 1:30 0.0 l/m2 in 1 Std. -
Mi, 19.09. 1:00 0.0 l/m2 in 1 Std. -
Mi, 19.09. 0:30 0.0 l/m2 in 1 Std. -
Ortszeit Stärke Spitze Richtung
km/h Bft. km/h Grad Sektor
Mi, 19.09. 2:00 6 1 35 250° W
Di, 18.09. 20:00 7 2 36 170° S
Di, 18.09. 14:00 17 3 33 200° S
Di, 18.09. 8:00 11 2 24 180° S
Di, 18.09. 2:00 4 1 14 160° S
Mo, 17.09. 20:00 7 2 32 210° SW
Mo, 17.09. 14:00 15 3 31 230° SW
Mo, 17.09. 8:00 11 2 22 210° SW
Ortszeit Stärke Spitze Richtung
km/h Bft. km/h Grad Sektor
Mi, 19.09. 3:30 11 2 18 200° S
Mi, 19.09. 3:20 11 2 - 200° S
Mi, 19.09. 3:10 11 2 - 200° S
Mi, 19.09. 3:00 11 2 17 200° S
Mi, 19.09. 2:50 11 2 - 200° S
Mi, 19.09. 2:40 11 2 - 200° S
Mi, 19.09. 2:30 9 2 11 220° SW
Mi, 19.09. 2:00 6 1 7 250° W
Mi, 19.09. 1:30 6 1 7 280° W
Mi, 19.09. 1:00 6 1 11 290° W
Mi, 19.09. 0:30 7 2 11 330° NW
Ortszeit Untergrenze Bedeckung Gattung
total tief tief mittel hoch
Mi, 19.09. 2:00 3300 m 2/8 2/8 - - -
Di, 18.09. 20:00 3000 m 1/8 - - - -
Di, 18.09. 14:00 10500 m 1/8 0/8 - - -
Di, 18.09. 8:00 - - - - - -
Di, 18.09. 2:00 - - - - - -
Mo, 17.09. 20:00 - - - - - -
Mo, 17.09. 14:00 9000 m 8/8 0/8 - - -
Mo, 17.09. 8:00 9000 m 8/8 0/8 - - -
Ortszeit Bedeckungsgrad in Achtel und Wolkenuntergrenze
Mi, 19.09. 3:30 1(6900m)
Mi, 19.09. 3:20 1(6900m)
Mi, 19.09. 3:10 1(6900m)
Mi, 19.09. 3:00 2(7200m)
Mi, 19.09. 2:50 2(7200m)
Mi, 19.09. 2:40 1(3600m) 4(7200m)
Mi, 19.09. 2:30 1(3600m)
Mi, 19.09. 2:00 2(3300m)
Mi, 19.09. 1:30 2(3300m) 9 9
Mi, 19.09. 1:00 1(3300m)
Mi, 19.09. 0:30 1(3300m)
Ortszeit Luftdruck NN (hPa) Tendenz (hPa in 3 Std.)
Mi, 19.09. 2:00 1015 + 1,2
Di, 18.09. 20:00 1011 + 0,1
Di, 18.09. 14:00 1012 - 1,7
Di, 18.09. 8:00 1015 - 0,7
Di, 18.09. 2:00 1017 - 0,9
Mo, 17.09. 20:00 1017 - 0,2
Mo, 17.09. 14:00 1018 - 0,9
Mo, 17.09. 8:00 1019 + 0,6
Ortszeit Luftdruck NN (hPa) Tendenz (hPa in 3 Std.)
Mi, 19.09. 3:30 1015 + 0,7
Mi, 19.09. 3:20 1015 keine Meldung
Mi, 19.09. 3:10 1015 keine Meldung
Mi, 19.09. 3:00 1015 + 0,7
Mi, 19.09. 2:50 1015 keine Meldung
Mi, 19.09. 2:40 1015 keine Meldung
Mi, 19.09. 2:30 1015 + 1,0
Mi, 19.09. 2:00 1015 + 1,2
Mi, 19.09. 1:30 1015 + 1,8
Mi, 19.09. 1:00 1015 + 2,5
Mi, 19.09. 0:30 1014 + 3,0
Ortszeit Schneehöhe (cm)
Mi, 19.09. 2:00 -
Di, 18.09. 20:00 -
Di, 18.09. 14:00 -
Di, 18.09. 8:00 -
Di, 18.09. 2:00 -
Mo, 17.09. 20:00 -
Mo, 17.09. 14:00 -
Mo, 17.09. 8:00 -
Ortszeit Schneehöhe (cm)
Mi, 19.09. 3:30 -
Mi, 19.09. 3:20 -
Mi, 19.09. 3:10 -
Mi, 19.09. 3:00 -
Mi, 19.09. 2:50 -
Mi, 19.09. 2:40 -
Mi, 19.09. 2:30 -
Mi, 19.09. 2:00 -
Mi, 19.09. 1:30 -
Mi, 19.09. 1:00 -
Mi, 19.09. 0:30 -
Link zu dieser Seite / Seite empfehlen

Das Wetter in ...